sensor_id;sensor_type;location;lat;lon;timestamp;P1;durP1;ratioP1;P2;durP2;ratioP2
22160;SDS011;49035;48.812;11.762;2024-02-16T00:01:10;4.83;;;4.10;;
22160;SDS011;49035;48.812;11.762;2024-02-16T00:03:35;4.00;;;3.40;;
22160;SDS011;49035;48.812;11.762;2024-02-16T00:06:01;9.97;;;6.33;;
22160;SDS011;49035;48.812;11.762;2024-02-16T00:08:27;8.90;;;6.40;;
22160;SDS011;49035;48.812;11.762;2024-02-16T00:10:52;6.23;;;5.30;;
22160;SDS011;49035;48.812;11.762;2024-02-16T00:13:18;5.30;;;4.43;;
22160;SDS011;49035;48.812;11.762;2024-02-16T00:15:44;7.80;;;5.40;;
22160;SDS011;49035;48.812;11.762;2024-02-16T00:18:10;4.33;;;3.93;;
22160;SDS011;49035;48.812;11.762;2024-02-16T00:20:35;7.87;;;5.50;;
22160;SDS011;49035;48.812;11.762;2024-02-16T00:23:01;7.67;;;5.80;;
22160;SDS011;49035;48.812;11.762;2024-02-16T00:25:26;9.37;;;6.50;;
22160;SDS011;49035;48.812;11.762;2024-02-16T00:27:52;7.20;;;5.97;;
22160;SDS011;49035;48.812;11.762;2024-02-16T00:30:20;19.13;;;9.07;;
22160;SDS011;49035;48.812;11.762;2024-02-16T00:32:47;25.70;;;21.23;;
22160;SDS011;49035;48.812;11.762;2024-02-16T00:35:16;11.63;;;8.30;;
22160;SDS011;49035;48.812;11.762;2024-02-16T00:37:42;6.70;;;5.27;;
22160;SDS011;49035;48.812;11.762;2024-02-16T00:40:08;9.77;;;6.40;;
22160;SDS011;49035;48.812;11.762;2024-02-16T00:42:34;9.17;;;6.83;;
22160;SDS011;49035;48.812;11.762;2024-02-16T00:45:00;7.13;;;5.60;;
22160;SDS011;49035;48.812;11.762;2024-02-16T00:47:26;9.07;;;6.90;;
22160;SDS011;49035;48.812;11.762;2024-02-16T00:49:54;9.53;;;6.47;;
22160;SDS011;49035;48.812;11.762;2024-02-16T00:52:20;8.53;;;5.97;;
22160;SDS011;49035;48.812;11.762;2024-02-16T00:54:47;9.33;;;6.60;;
22160;SDS011;49035;48.812;11.762;2024-02-16T00:57:13;6.17;;;5.00;;
22160;SDS011;49035;48.812;11.762;2024-02-16T00:59:39;8.03;;;6.03;;
22160;SDS011;49035;48.812;11.762;2024-02-16T01:02:05;8.67;;;5.93;;
22160;SDS011;49035;48.812;11.762;2024-02-16T01:04:32;8.17;;;6.00;;
22160;SDS011;49035;48.812;11.762;2024-02-16T01:06:58;7.30;;;5.53;;
22160;SDS011;49035;48.812;11.762;2024-02-16T01:09:24;8.30;;;5.87;;
22160;SDS011;49035;48.812;11.762;2024-02-16T01:11:49;8.20;;;5.40;;
22160;SDS011;49035;48.812;11.762;2024-02-16T01:14:15;6.43;;;4.87;;
22160;SDS011;49035;48.812;11.762;2024-02-16T01:16:41;5.07;;;4.30;;
22160;SDS011;49035;48.812;11.762;2024-02-16T01:19:06;4.20;;;3.80;;
22160;SDS011;49035;48.812;11.762;2024-02-16T01:21:32;5.87;;;4.33;;
22160;SDS011;49035;48.812;11.762;2024-02-16T01:23:58;6.23;;;4.70;;
22160;SDS011;49035;48.812;11.762;2024-02-16T01:26:26;5.23;;;4.67;;
22160;SDS011;49035;48.812;11.762;2024-02-16T01:28:52;6.80;;;5.27;;
22160;SDS011;49035;48.812;11.762;2024-02-16T01:31:17;7.73;;;6.33;;
22160;SDS011;49035;48.812;11.762;2024-02-16T01:33:43;15.57;;;8.53;;
22160;SDS011;49035;48.812;11.762;2024-02-16T01:36:09;16.43;;;12.10;;
22160;SDS011;49035;48.812;11.762;2024-02-16T01:38:35;27.03;;;9.87;;
22160;SDS011;49035;48.812;11.762;2024-02-16T01:41:01;8.03;;;6.40;;
22160;SDS011;49035;48.812;11.762;2024-02-16T01:43:27;6.93;;;5.90;;
22160;SDS011;49035;48.812;11.762;2024-02-16T01:45:53;14.17;;;9.47;;
22160;SDS011;49035;48.812;11.762;2024-02-16T01:48:19;10.73;;;8.50;;
22160;SDS011;49035;48.812;11.762;2024-02-16T01:50:45;12.97;;;9.30;;
22160;SDS011;49035;48.812;11.762;2024-02-16T01:53:12;13.77;;;10.13;;
22160;SDS011;49035;48.812;11.762;2024-02-16T01:55:43;13.27;;;9.37;;
22160;SDS011;49035;48.812;11.762;2024-02-16T01:58:09;15.17;;;10.00;;
22160;SDS011;49035;48.812;11.762;2024-02-16T02:00:36;13.37;;;8.87;;
22160;SDS011;49035;48.812;11.762;2024-02-16T02:03:01;13.53;;;9.93;;
22160;SDS011;49035;48.812;11.762;2024-02-16T02:05:28;17.73;;;10.23;;
22160;SDS011;49035;48.812;11.762;2024-02-16T02:07:53;16.37;;;9.77;;
22160;SDS011;49035;48.812;11.762;2024-02-16T02:10:19;16.10;;;9.87;;
22160;SDS011;49035;48.812;11.762;2024-02-16T02:12:45;11.47;;;8.07;;
22160;SDS011;49035;48.812;11.762;2024-02-16T02:15:10;12.00;;;7.93;;
22160;SDS011;49035;48.812;11.762;2024-02-16T02:17:36;12.60;;;8.07;;
22160;SDS011;49035;48.812;11.762;2024-02-16T02:20:02;13.43;;;8.60;;
22160;SDS011;49035;48.812;11.762;2024-02-16T02:22:35;12.90;;;7.97;;
22160;SDS011;49035;48.812;11.762;2024-02-16T02:25:03;20.33;;;12.63;;
22160;SDS011;49035;48.812;11.762;2024-02-16T02:27:29;17.03;;;9.53;;
22160;SDS011;49035;48.812;11.762;2024-02-16T02:29:55;16.93;;;9.87;;
22160;SDS011;49035;48.812;11.762;2024-02-16T02:32:21;11.53;;;7.67;;
22160;SDS011;49035;48.812;11.762;2024-02-16T02:34:46;18.03;;;8.87;;
22160;SDS011;49035;48.812;11.762;2024-02-16T02:37:12;12.73;;;7.50;;
22160;SDS011;49035;48.812;11.762;2024-02-16T02:39:37;13.23;;;8.17;;
22160;SDS011;49035;48.812;11.762;2024-02-16T02:42:03;11.23;;;8.63;;
22160;SDS011;49035;48.812;11.762;2024-02-16T02:44:29;12.30;;;9.07;;
22160;SDS011;49035;48.812;11.762;2024-02-16T02:46:56;11.23;;;8.90;;
22160;SDS011;49035;48.812;11.762;2024-02-16T02:49:22;13.57;;;9.13;;
22160;SDS011;49035;48.812;11.762;2024-02-16T02:51:47;17.70;;;10.90;;
22160;SDS011;49035;48.812;11.762;2024-02-16T02:54:13;16.17;;;10.60;;
22160;SDS011;49035;48.812;11.762;2024-02-16T02:56:38;15.97;;;10.73;;
22160;SDS011;49035;48.812;11.762;2024-02-16T02:59:04;21.47;;;11.70;;
22160;SDS011;49035;48.812;11.762;2024-02-16T03:01:30;20.60;;;12.30;;
22160;SDS011;49035;48.812;11.762;2024-02-16T03:03:56;23.50;;;13.57;;
22160;SDS011;49035;48.812;11.762;2024-02-16T03:06:23;20.30;;;12.73;;
22160;SDS011;49035;48.812;11.762;2024-02-16T03:08:48;21.47;;;13.90;;
22160;SDS011;49035;48.812;11.762;2024-02-16T03:11:14;21.87;;;13.00;;
22160;SDS011;49035;48.812;11.762;2024-02-16T03:13:39;24.60;;;12.63;;
22160;SDS011;49035;48.812;11.762;2024-02-16T03:16:05;21.13;;;12.03;;
22160;SDS011;49035;48.812;11.762;2024-02-16T03:18:31;15.93;;;11.80;;
22160;SDS011;49035;48.812;11.762;2024-02-16T03:20:57;21.17;;;12.73;;
22160;SDS011;49035;48.812;11.762;2024-02-16T03:23:23;22.70;;;12.10;;
22160;SDS011;49035;48.812;11.762;2024-02-16T03:25:49;29.73;;;13.63;;
22160;SDS011;49035;48.812;11.762;2024-02-16T03:28:15;20.43;;;12.93;;
22160;SDS011;49035;48.812;11.762;2024-02-16T03:30:41;21.13;;;12.13;;
22160;SDS011;49035;48.812;11.762;2024-02-16T03:33:07;20.77;;;12.93;;
22160;SDS011;49035;48.812;11.762;2024-02-16T03:35:33;24.77;;;14.70;;
22160;SDS011;49035;48.812;11.762;2024-02-16T03:37:59;23.07;;;13.63;;
22160;SDS011;49035;48.812;11.762;2024-02-16T03:40:24;24.13;;;15.20;;
22160;SDS011;49035;48.812;11.762;2024-02-16T03:42:54;21.63;;;13.97;;
22160;SDS011;49035;48.812;11.762;2024-02-16T03:45:20;20.83;;;13.80;;
22160;SDS011;49035;48.812;11.762;2024-02-16T03:47:46;22.20;;;13.33;;
22160;SDS011;49035;48.812;11.762;2024-02-16T03:50:13;19.50;;;11.57;;
22160;SDS011;49035;48.812;11.762;2024-02-16T03:52:39;24.83;;;12.60;;
22160;SDS011;49035;48.812;11.762;2024-02-16T03:55:05;20.97;;;13.10;;
22160;SDS011;49035;48.812;11.762;2024-02-16T03:57:31;21.30;;;12.07;;
22160;SDS011;49035;48.812;11.762;2024-02-16T03:59:57;23.97;;;14.37;;
22160;SDS011;49035;48.812;11.762;2024-02-16T04:02:22;21.77;;;13.23;;
22160;SDS011;49035;48.812;11.762;2024-02-16T04:04:48;21.47;;;13.77;;
22160;SDS011;49035;48.812;11.762;2024-02-16T04:07:13;18.53;;;11.93;;
22160;SDS011;49035;48.812;11.762;2024-02-16T04:09:39;20.33;;;12.23;;
22160;SDS011;49035;48.812;11.762;2024-02-16T04:12:05;21.33;;;12.97;;
22160;SDS011;49035;48.812;11.762;2024-02-16T04:14:31;21.00;;;12.57;;
22160;SDS011;49035;48.812;11.762;2024-02-16T04:16:58;24.63;;;14.47;;
22160;SDS011;49035;48.812;11.762;2024-02-16T04:19:25;24.10;;;14.23;;
22160;SDS011;49035;48.812;11.762;2024-02-16T04:21:51;27.53;;;14.47;;
22160;SDS011;49035;48.812;11.762;2024-02-16T04:24:17;28.37;;;14.17;;
22160;SDS011;49035;48.812;11.762;2024-02-16T04:26:43;24.63;;;14.10;;
22160;SDS011;49035;48.812;11.762;2024-02-16T04:29:09;24.30;;;14.83;;
22160;SDS011;49035;48.812;11.762;2024-02-16T04:31:34;28.40;;;14.37;;
22160;SDS011;49035;48.812;11.762;2024-02-16T04:34:00;30.23;;;13.80;;
22160;SDS011;49035;48.812;11.762;2024-02-16T04:36:26;17.60;;;12.17;;
22160;SDS011;49035;48.812;11.762;2024-02-16T04:38:52;20.73;;;13.17;;
22160;SDS011;49035;48.812;11.762;2024-02-16T04:41:19;25.30;;;12.73;;
22160;SDS011;49035;48.812;11.762;2024-02-16T04:43:45;25.90;;;12.47;;
22160;SDS011;49035;48.812;11.762;2024-02-16T04:46:14;25.23;;;12.53;;
22160;SDS011;49035;48.812;11.762;2024-02-16T04:48:40;19.30;;;12.17;;
22160;SDS011;49035;48.812;11.762;2024-02-16T04:51:06;19.50;;;12.13;;
22160;SDS011;49035;48.812;11.762;2024-02-16T04:53:32;23.30;;;13.23;;
22160;SDS011;49035;48.812;11.762;2024-02-16T04:55:57;19.87;;;13.30;;
22160;SDS011;49035;48.812;11.762;2024-02-16T04:58:23;18.47;;;12.67;;
22160;SDS011;49035;48.812;11.762;2024-02-16T05:00:49;19.37;;;11.97;;
22160;SDS011;49035;48.812;11.762;2024-02-16T05:03:14;19.37;;;11.63;;
22160;SDS011;49035;48.812;11.762;2024-02-16T05:05:40;21.50;;;12.53;;
22160;SDS011;49035;48.812;11.762;2024-02-16T05:08:06;18.37;;;11.37;;
22160;SDS011;49035;48.812;11.762;2024-02-16T05:10:31;21.20;;;12.53;;
22160;SDS011;49035;48.812;11.762;2024-02-16T05:12:57;25.17;;;13.63;;
22160;SDS011;49035;48.812;11.762;2024-02-16T05:15:23;21.40;;;11.60;;
22160;SDS011;49035;48.812;11.762;2024-02-16T05:17:49;20.93;;;12.03;;
22160;SDS011;49035;48.812;11.762;2024-02-16T05:20:15;28.17;;;13.70;;
22160;SDS011;49035;48.812;11.762;2024-02-16T05:22:44;24.10;;;14.37;;
22160;SDS011;49035;48.812;11.762;2024-02-16T05:25:14;28.47;;;14.60;;
22160;SDS011;49035;48.812;11.762;2024-02-16T05:27:41;28.17;;;15.43;;
22160;SDS011;49035;48.812;11.762;2024-02-16T05:30:09;30.80;;;16.83;;
22160;SDS011;49035;48.812;11.762;2024-02-16T05:32:36;31.77;;;16.60;;
22160;SDS011;49035;48.812;11.762;2024-02-16T05:35:06;31.93;;;16.23;;
22160;SDS011;49035;48.812;11.762;2024-02-16T05:37:43;30.40;;;16.80;;
22160;SDS011;49035;48.812;11.762;2024-02-16T05:40:12;37.80;;;19.57;;
22160;SDS011;49035;48.812;11.762;2024-02-16T05:42:46;38.23;;;20.87;;
22160;SDS011;49035;48.812;11.762;2024-02-16T05:45:13;40.53;;;22.43;;
22160;SDS011;49035;48.812;11.762;2024-02-16T05:47:39;31.23;;;18.73;;
22160;SDS011;49035;48.812;11.762;2024-02-16T05:50:05;34.97;;;20.23;;
22160;SDS011;49035;48.812;11.762;2024-02-16T05:52:31;37.50;;;20.00;;
22160;SDS011;49035;48.812;11.762;2024-02-16T05:54:57;40.17;;;21.53;;
22160;SDS011;49035;48.812;11.762;2024-02-16T05:57:23;39.00;;;22.33;;
22160;SDS011;49035;48.812;11.762;2024-02-16T05:59:49;42.23;;;23.30;;
22160;SDS011;49035;48.812;11.762;2024-02-16T06:02:15;40.67;;;21.20;;
22160;SDS011;49035;48.812;11.762;2024-02-16T06:04:40;40.40;;;19.27;;
22160;SDS011;49035;48.812;11.762;2024-02-16T06:07:07;25.30;;;14.40;;
22160;SDS011;49035;48.812;11.762;2024-02-16T06:09:33;27.87;;;14.53;;
22160;SDS011;49035;48.812;11.762;2024-02-16T06:12:03;22.27;;;13.47;;
22160;SDS011;49035;48.812;11.762;2024-02-16T06:14:33;22.47;;;13.70;;
22160;SDS011;49035;48.812;11.762;2024-02-16T06:16:58;34.43;;;18.93;;
22160;SDS011;49035;48.812;11.762;2024-02-16T06:19:25;37.17;;;19.80;;
22160;SDS011;49035;48.812;11.762;2024-02-16T06:21:50;48.07;;;21.73;;
22160;SDS011;49035;48.812;11.762;2024-02-16T06:24:17;38.73;;;20.47;;
22160;SDS011;49035;48.812;11.762;2024-02-16T06:26:43;111.87;;;65.63;;
22160;SDS011;49035;48.812;11.762;2024-02-16T06:29:09;52.90;;;30.10;;
22160;SDS011;49035;48.812;11.762;2024-02-16T06:31:35;54.80;;;26.40;;
22160;SDS011;49035;48.812;11.762;2024-02-16T06:34:00;53.45;;;24.52;;
22160;SDS011;49035;48.812;11.762;2024-02-16T06:36:28;52.90;;;24.33;;
22160;SDS011;49035;48.812;11.762;2024-02-16T06:38:53;54.28;;;26.00;;
22160;SDS011;49035;48.812;11.762;2024-02-16T06:41:19;50.72;;;25.77;;
22160;SDS011;49035;48.812;11.762;2024-02-16T06:43:44;52.65;;;25.85;;
22160;SDS011;49035;48.812;11.762;2024-02-16T06:46:10;54.37;;;28.30;;
22160;SDS011;49035;48.812;11.762;2024-02-16T06:48:36;58.30;;;28.25;;
22160;SDS011;49035;48.812;11.762;2024-02-16T06:51:01;67.30;;;26.77;;
22160;SDS011;49035;48.812;11.762;2024-02-16T06:53:27;54.40;;;27.15;;
22160;SDS011;49035;48.812;11.762;2024-02-16T06:55:52;61.10;;;27.10;;
22160;SDS011;49035;48.812;11.762;2024-02-16T06:58:18;62.72;;;27.98;;
22160;SDS011;49035;48.812;11.762;2024-02-16T07:00:43;64.45;;;27.77;;
22160;SDS011;49035;48.812;11.762;2024-02-16T07:03:09;59.72;;;27.52;;
22160;SDS011;49035;48.812;11.762;2024-02-16T07:05:35;54.85;;;27.88;;
22160;SDS011;49035;48.812;11.762;2024-02-16T07:08:01;65.78;;;27.27;;
22160;SDS011;49035;48.812;11.762;2024-02-16T07:10:26;49.10;;;24.77;;
22160;SDS011;49035;48.812;11.762;2024-02-16T07:12:52;47.83;;;26.67;;
22160;SDS011;49035;48.812;11.762;2024-02-16T07:15:18;58.30;;;25.92;;
22160;SDS011;49035;48.812;11.762;2024-02-16T07:17:43;58.97;;;26.10;;
22160;SDS011;49035;48.812;11.762;2024-02-16T07:20:09;59.08;;;27.33;;
22160;SDS011;49035;48.812;11.762;2024-02-16T07:22:35;53.95;;;24.90;;
22160;SDS011;49035;48.812;11.762;2024-02-16T07:25:01;70.13;;;28.05;;
22160;SDS011;49035;48.812;11.762;2024-02-16T07:27:28;58.03;;;26.58;;
22160;SDS011;49035;48.812;11.762;2024-02-16T07:29:54;59.03;;;28.40;;
22160;SDS011;49035;48.812;11.762;2024-02-16T07:32:20;56.85;;;29.30;;
22160;SDS011;49035;48.812;11.762;2024-02-16T07:34:46;63.13;;;30.75;;
22160;SDS011;49035;48.812;11.762;2024-02-16T07:37:12;55.22;;;26.10;;
22160;SDS011;49035;48.812;11.762;2024-02-16T07:39:38;53.70;;;26.15;;
22160;SDS011;49035;48.812;11.762;2024-02-16T07:42:05;55.22;;;26.17;;
22160;SDS011;49035;48.812;11.762;2024-02-16T07:44:34;51.17;;;25.15;;
22160;SDS011;49035;48.812;11.762;2024-02-16T07:47:00;56.85;;;26.33;;
22160;SDS011;49035;48.812;11.762;2024-02-16T07:49:26;53.17;;;25.77;;
22160;SDS011;49035;48.812;11.762;2024-02-16T07:51:52;56.30;;;26.27;;
22160;SDS011;49035;48.812;11.762;2024-02-16T07:54:17;56.38;;;27.40;;
22160;SDS011;49035;48.812;11.762;2024-02-16T07:56:43;53.40;;;25.88;;
22160;SDS011;49035;48.812;11.762;2024-02-16T07:59:09;54.00;;;27.38;;
22160;SDS011;49035;48.812;11.762;2024-02-16T08:01:34;49.97;;;26.05;;
22160;SDS011;49035;48.812;11.762;2024-02-16T08:04:00;54.90;;;29.75;;
22160;SDS011;49035;48.812;11.762;2024-02-16T08:06:26;77.88;;;36.20;;
22160;SDS011;49035;48.812;11.762;2024-02-16T08:08:52;81.60;;;35.78;;
22160;SDS011;49035;48.812;11.762;2024-02-16T08:11:18;72.63;;;34.40;;
22160;SDS011;49035;48.812;11.762;2024-02-16T08:13:45;63.47;;;30.63;;
22160;SDS011;49035;48.812;11.762;2024-02-16T08:16:10;72.93;;;34.28;;
22160;SDS011;49035;48.812;11.762;2024-02-16T08:18:36;76.00;;;33.10;;
22160;SDS011;49035;48.812;11.762;2024-02-16T08:21:02;60.00;;;31.73;;
22160;SDS011;49035;48.812;11.762;2024-02-16T08:23:30;73.25;;;33.47;;
22160;SDS011;49035;48.812;11.762;2024-02-16T08:25:56;61.75;;;31.73;;
22160;SDS011;49035;48.812;11.762;2024-02-16T08:28:23;64.00;;;30.30;;
22160;SDS011;49035;48.812;11.762;2024-02-16T08:30:49;66.28;;;32.65;;
22160;SDS011;49035;48.812;11.762;2024-02-16T08:33:15;63.85;;;31.70;;
22160;SDS011;49035;48.812;11.762;2024-02-16T08:35:40;69.88;;;33.53;;
22160;SDS011;49035;48.812;11.762;2024-02-16T08:38:06;73.53;;;35.38;;
22160;SDS011;49035;48.812;11.762;2024-02-16T08:40:36;76.40;;;38.33;;
22160;SDS011;49035;48.812;11.762;2024-02-16T08:43:03;75.15;;;37.20;;
22160;SDS011;49035;48.812;11.762;2024-02-16T08:45:34;71.78;;;36.20;;
22160;SDS011;49035;48.812;11.762;2024-02-16T08:48:00;80.20;;;39.35;;
22160;SDS011;49035;48.812;11.762;2024-02-16T08:50:28;97.47;;;42.67;;
22160;SDS011;49035;48.812;11.762;2024-02-16T08:52:54;90.88;;;42.95;;
22160;SDS011;49035;48.812;11.762;2024-02-16T08:55:20;92.68;;;42.20;;
22160;SDS011;49035;48.812;11.762;2024-02-16T08:57:46;93.80;;;41.90;;
22160;SDS011;49035;48.812;11.762;2024-02-16T09:00:11;76.13;;;40.53;;
22160;SDS011;49035;48.812;11.762;2024-02-16T09:02:37;75.70;;;38.85;;
22160;SDS011;49035;48.812;11.762;2024-02-16T09:05:03;70.50;;;37.03;;
22160;SDS011;49035;48.812;11.762;2024-02-16T09:07:30;64.70;;;34.47;;
22160;SDS011;49035;48.812;11.762;2024-02-16T09:09:55;54.35;;;31.98;;
22160;SDS011;49035;48.812;11.762;2024-02-16T09:12:21;58.45;;;33.85;;
22160;SDS011;49035;48.812;11.762;2024-02-16T09:14:47;56.78;;;34.63;;
22160;SDS011;49035;48.812;11.762;2024-02-16T09:17:13;46.90;;;30.08;;
22160;SDS011;49035;48.812;11.762;2024-02-16T09:19:39;42.20;;;28.50;;
22160;SDS011;49035;48.812;11.762;2024-02-16T09:22:04;33.90;;;22.05;;
22160;SDS011;49035;48.812;11.762;2024-02-16T09:24:32;32.50;;;22.10;;
22160;SDS011;49035;48.812;11.762;2024-02-16T09:26:58;25.13;;;18.00;;
22160;SDS011;49035;48.812;11.762;2024-02-16T09:29:28;22.02;;;17.85;;
22160;SDS011;49035;48.812;11.762;2024-02-16T09:31:54;25.90;;;17.70;;
22160;SDS011;49035;48.812;11.762;2024-02-16T09:34:20;24.17;;;16.92;;
22160;SDS011;49035;48.812;11.762;2024-02-16T09:36:45;18.98;;;14.52;;
22160;SDS011;49035;48.812;11.762;2024-02-16T09:39:11;17.42;;;14.00;;
22160;SDS011;49035;48.812;11.762;2024-02-16T09:41:37;19.52;;;14.05;;
22160;SDS011;49035;48.812;11.762;2024-02-16T09:44:07;21.23;;;12.57;;
22160;SDS011;49035;48.812;11.762;2024-02-16T09:46:35;18.10;;;12.88;;
22160;SDS011;49035;48.812;11.762;2024-02-16T09:49:02;18.05;;;12.65;;
22160;SDS011;49035;48.812;11.762;2024-02-16T09:51:30;17.30;;;13.45;;
22160;SDS011;49035;48.812;11.762;2024-02-16T09:53:56;15.88;;;13.15;;
22160;SDS011;49035;48.812;11.762;2024-02-16T09:56:22;17.95;;;13.80;;
22160;SDS011;49035;48.812;11.762;2024-02-16T09:58:50;17.98;;;12.82;;
22160;SDS011;49035;48.812;11.762;2024-02-16T10:01:20;17.20;;;12.85;;
22160;SDS011;49035;48.812;11.762;2024-02-16T10:03:49;14.73;;;11.32;;
22160;SDS011;49035;48.812;11.762;2024-02-16T10:06:16;17.73;;;12.35;;
22160;SDS011;49035;48.812;11.762;2024-02-16T10:08:49;16.92;;;12.38;;
22160;SDS011;49035;48.812;11.762;2024-02-16T10:11:19;20.33;;;13.10;;
22160;SDS011;49035;48.812;11.762;2024-02-16T10:13:55;18.25;;;12.30;;
22160;SDS011;49035;48.812;11.762;2024-02-16T10:16:21;20.35;;;13.07;;
22160;SDS011;49035;48.812;11.762;2024-02-16T10:18:47;15.93;;;11.77;;
22160;SDS011;49035;48.812;11.762;2024-02-16T10:21:13;14.55;;;12.07;;
22160;SDS011;49035;48.812;11.762;2024-02-16T10:24:22;16.55;;;12.55;;
22160;SDS011;49035;48.812;11.762;2024-02-16T10:26:46;15.13;;;11.65;;
22160;SDS011;49035;48.812;11.762;2024-02-16T10:29:11;17.85;;;12.38;;
22160;SDS011;49035;48.812;11.762;2024-02-16T10:31:38;15.05;;;12.00;;
22160;SDS011;49035;48.812;11.762;2024-02-16T10:34:04;14.80;;;11.88;;
22160;SDS011;49035;48.812;11.762;2024-02-16T10:36:34;16.92;;;11.45;;
22160;SDS011;49035;48.812;11.762;2024-02-16T10:39:01;16.15;;;10.98;;
22160;SDS011;49035;48.812;11.762;2024-02-16T10:41:48;16.98;;;12.30;;
22160;SDS011;49035;48.812;11.762;2024-02-16T10:44:15;15.57;;;12.65;;
22160;SDS011;49035;48.812;11.762;2024-02-16T10:46:42;16.13;;;12.02;;
22160;SDS011;49035;48.812;11.762;2024-02-16T10:49:07;16.00;;;11.38;;
22160;SDS011;49035;48.812;11.762;2024-02-16T10:51:44;15.18;;;11.48;;
22160;SDS011;49035;48.812;11.762;2024-02-16T10:54:13;15.30;;;11.35;;
22160;SDS011;49035;48.812;11.762;2024-02-16T10:56:43;16.83;;;11.43;;
22160;SDS011;49035;48.812;11.762;2024-02-16T10:59:09;14.40;;;12.10;;
22160;SDS011;49035;48.812;11.762;2024-02-16T11:01:39;15.70;;;11.93;;
22160;SDS011;49035;48.812;11.762;2024-02-16T11:04:06;14.35;;;10.63;;
22160;SDS011;49035;48.812;11.762;2024-02-16T11:09:56;14.13;;;10.80;;
22160;SDS011;49035;48.812;11.762;2024-02-16T11:12:24;14.80;;;10.52;;
22160;SDS011;49035;48.812;11.762;2024-02-16T11:14:59;19.58;;;11.68;;
22160;SDS011;49035;48.812;11.762;2024-02-16T11:17:25;14.52;;;10.32;;
22160;SDS011;49035;48.812;11.762;2024-02-16T11:19:54;12.95;;;10.98;;
22160;SDS011;49035;48.812;11.762;2024-02-16T11:22:20;14.00;;;11.00;;
22160;SDS011;49035;48.812;11.762;2024-02-16T11:24:47;15.80;;;9.63;;
22160;SDS011;49035;48.812;11.762;2024-02-16T11:27:14;12.20;;;9.75;;
22160;SDS011;49035;48.812;11.762;2024-02-16T11:29:43;14.90;;;10.38;;
22160;SDS011;49035;48.812;11.762;2024-02-16T11:32:10;13.07;;;9.20;;
22160;SDS011;49035;48.812;11.762;2024-02-16T11:34:36;12.50;;;8.23;;
22160;SDS011;49035;48.812;11.762;2024-02-16T11:37:03;10.73;;;8.30;;
22160;SDS011;49035;48.812;11.762;2024-02-16T11:39:30;11.82;;;8.77;;
22160;SDS011;49035;48.812;11.762;2024-02-16T11:42:02;10.40;;;8.13;;
22160;SDS011;49035;48.812;11.762;2024-02-16T11:44:31;11.15;;;8.45;;
22160;SDS011;49035;48.812;11.762;2024-02-16T11:46:58;12.60;;;9.02;;
22160;SDS011;49035;48.812;11.762;2024-02-16T11:49:24;12.50;;;8.80;;
22160;SDS011;49035;48.812;11.762;2024-02-16T11:51:50;12.15;;;8.50;;
22160;SDS011;49035;48.812;11.762;2024-02-16T11:54:16;10.20;;;8.35;;
22160;SDS011;49035;48.812;11.762;2024-02-16T11:56:45;12.15;;;8.65;;
22160;SDS011;49035;48.812;11.762;2024-02-16T11:59:14;11.40;;;7.78;;
22160;SDS011;49035;48.812;11.762;2024-02-16T12:04:23;11.38;;;7.95;;
22160;SDS011;49035;48.812;11.762;2024-02-16T12:06:56;12.60;;;8.68;;
22160;SDS011;49035;48.812;11.762;2024-02-16T12:09:22;11.00;;;7.82;;
22160;SDS011;49035;48.812;11.762;2024-02-16T12:11:48;10.15;;;7.57;;
22160;SDS011;49035;48.812;11.762;2024-02-16T12:14:15;11.35;;;7.82;;
22160;SDS011;49035;48.812;11.762;2024-02-16T12:16:42;11.32;;;8.45;;
22160;SDS011;49035;48.812;11.762;2024-02-16T12:19:11;10.25;;;7.43;;
22160;SDS011;49035;48.812;11.762;2024-02-16T12:21:38;8.90;;;7.45;;
22160;SDS011;49035;48.812;11.762;2024-02-16T12:24:03;10.70;;;7.30;;
22160;SDS011;49035;48.812;11.762;2024-02-16T12:26:29;9.65;;;7.55;;
22160;SDS011;49035;48.812;11.762;2024-02-16T12:28:55;10.48;;;7.50;;
22160;SDS011;49035;48.812;11.762;2024-02-16T12:31:20;8.48;;;7.07;;
22160;SDS011;49035;48.812;11.762;2024-02-16T12:33:47;10.57;;;7.25;;
22160;SDS011;49035;48.812;11.762;2024-02-16T12:36:12;10.70;;;7.07;;
22160;SDS011;49035;48.812;11.762;2024-02-16T12:38:38;10.70;;;7.97;;
22160;SDS011;49035;48.812;11.762;2024-02-16T12:41:05;10.23;;;7.13;;
22160;SDS011;49035;48.812;11.762;2024-02-16T12:43:31;11.65;;;7.53;;
22160;SDS011;49035;48.812;11.762;2024-02-16T12:45:56;9.57;;;7.35;;
22160;SDS011;49035;48.812;11.762;2024-02-16T12:48:24;9.57;;;7.40;;
22160;SDS011;49035;48.812;11.762;2024-02-16T12:50:50;11.88;;;8.00;;
22160;SDS011;49035;48.812;11.762;2024-02-16T12:53:17;13.10;;;7.67;;
22160;SDS011;49035;48.812;11.762;2024-02-16T12:55:43;9.80;;;7.20;;
22160;SDS011;49035;48.812;11.762;2024-02-16T12:58:09;10.27;;;7.90;;
22160;SDS011;49035;48.812;11.762;2024-02-16T13:00:35;12.68;;;8.23;;
22160;SDS011;49035;48.812;11.762;2024-02-16T13:03:00;11.13;;;7.07;;
22160;SDS011;49035;48.812;11.762;2024-02-16T13:05:26;8.90;;;7.32;;
22160;SDS011;49035;48.812;11.762;2024-02-16T13:07:52;9.48;;;7.18;;
22160;SDS011;49035;48.812;11.762;2024-02-16T13:10:18;10.57;;;7.22;;
22160;SDS011;49035;48.812;11.762;2024-02-16T13:12:44;13.50;;;7.95;;
22160;SDS011;49035;48.812;11.762;2024-02-16T13:15:10;10.27;;;7.38;;
22160;SDS011;49035;48.812;11.762;2024-02-16T13:17:36;9.32;;;7.65;;
22160;SDS011;49035;48.812;11.762;2024-02-16T13:20:01;12.68;;;7.55;;
22160;SDS011;49035;48.812;11.762;2024-02-16T13:22:34;10.23;;;7.65;;
22160;SDS011;49035;48.812;11.762;2024-02-16T13:25:01;8.73;;;7.63;;
22160;SDS011;49035;48.812;11.762;2024-02-16T13:27:31;10.57;;;7.47;;
22160;SDS011;49035;48.812;11.762;2024-02-16T13:29:57;9.98;;;7.65;;
22160;SDS011;49035;48.812;11.762;2024-02-16T13:32:22;13.93;;;7.97;;
22160;SDS011;49035;48.812;11.762;2024-02-16T13:34:48;11.07;;;7.40;;
22160;SDS011;49035;48.812;11.762;2024-02-16T13:37:14;12.55;;;8.82;;
22160;SDS011;49035;48.812;11.762;2024-02-16T13:39:40;10.30;;;7.65;;
22160;SDS011;49035;48.812;11.762;2024-02-16T13:42:05;12.35;;;8.38;;
22160;SDS011;49035;48.812;11.762;2024-02-16T13:44:31;15.88;;;9.40;;
22160;SDS011;49035;48.812;11.762;2024-02-16T13:46:57;10.90;;;8.93;;
22160;SDS011;49035;48.812;11.762;2024-02-16T13:49:22;13.75;;;9.07;;
22160;SDS011;49035;48.812;11.762;2024-02-16T13:51:48;10.52;;;8.38;;
22160;SDS011;49035;48.812;11.762;2024-02-16T13:54:14;15.35;;;9.25;;
22160;SDS011;49035;48.812;11.762;2024-02-16T13:56:39;10.07;;;8.55;;
22160;SDS011;49035;48.812;11.762;2024-02-16T13:59:06;15.68;;;9.27;;
22160;SDS011;49035;48.812;11.762;2024-02-16T14:01:34;12.25;;;9.30;;
22160;SDS011;49035;48.812;11.762;2024-02-16T14:04:02;11.98;;;8.50;;
22160;SDS011;49035;48.812;11.762;2024-02-16T14:06:28;10.40;;;8.20;;
22160;SDS011;49035;48.812;11.762;2024-02-16T14:08:56;12.65;;;8.60;;
22160;SDS011;49035;48.812;11.762;2024-02-16T14:11:22;11.40;;;9.15;;
22160;SDS011;49035;48.812;11.762;2024-02-16T14:13:48;13.45;;;9.30;;
22160;SDS011;49035;48.812;11.762;2024-02-16T14:16:14;12.68;;;9.45;;
22160;SDS011;49035;48.812;11.762;2024-02-16T14:18:39;11.77;;;9.20;;